createdAt,value
2017-04-22T00:00:33.799Z,34.48
2017-04-22T00:01:39.324Z,35.42
2017-04-22T00:02:44.972Z,36.30
2017-04-22T00:03:51.331Z,34.55
2017-04-22T00:04:56.140Z,34.23
2017-04-22T00:06:01.876Z,33.02
2017-04-22T00:07:08.094Z,33.35
2017-04-22T00:08:12.913Z,32.73
2017-04-22T00:09:18.359Z,33.55
2017-04-22T00:10:23.722Z,33.38
2017-04-22T00:11:29.324Z,34.40
2017-04-22T00:12:35.687Z,32.30
2017-04-22T00:13:42.384Z,32.57
2017-04-22T00:14:47.314Z,32.17
2017-04-22T00:15:52.725Z,32.48
2017-04-22T00:16:58.473Z,33.98
2017-04-22T00:18:03.903Z,32.53
2017-04-22T00:19:09.442Z,33.68
2017-04-22T00:20:14.789Z,33.58
2017-04-22T00:21:20.220Z,33.57
2017-04-22T00:22:25.740Z,33.78
2017-04-22T00:23:31.258Z,33.30
2017-04-22T00:24:37.566Z,34.98
2017-04-22T00:25:43.838Z,33.58
2017-04-22T00:26:48.770Z,33.43
2017-04-22T00:27:54.322Z,33.10
2017-04-22T00:29:00.571Z,35.22
2017-04-22T00:30:06.243Z,32.53
2017-04-22T00:31:11.050Z,34.65
2017-04-22T00:32:16.592Z,32.48
2017-04-22T00:33:22.921Z,33.68
2017-04-22T00:34:27.672Z,35.82
2017-04-22T00:35:34.050Z,34.47
2017-04-22T00:36:38.760Z,33.92
2017-04-22T00:37:44.386Z,34.73
2017-04-22T00:38:49.985Z,34.58
2017-04-22T00:39:54.717Z,35.08
2017-04-22T00:41:00.274Z,36.23
2017-04-22T00:42:05.937Z,33.65
2017-04-22T00:43:11.319Z,34.68
2017-04-22T00:44:16.807Z,33.48
2017-04-22T00:45:23.112Z,34.88
2017-04-22T00:46:28.042Z,32.53
2017-04-22T00:47:34.472Z,30.82
2017-04-22T00:48:39.896Z,32.30
2017-04-22T00:49:44.645Z,30.07
2017-04-22T00:50:50.113Z,30.07
2017-04-22T00:51:54.940Z,29.62
2017-04-22T00:53:00.556Z,30.88
2017-04-22T00:54:06.990Z,30.42
2017-04-22T00:55:12.520Z,30.52
2017-04-22T00:56:18.000Z,29.72
2017-04-22T00:57:23.645Z,28.45
2017-04-22T00:58:29.157Z,29.28
2017-04-22T00:59:36.001Z,28.02
2017-04-22T01:00:41.503Z,28.67
2017-04-22T01:01:47.213Z,27.85
2017-04-22T01:02:53.713Z,27.93
2017-04-22T01:03:59.364Z,27.12
2017-04-22T01:05:04.957Z,28.57
2017-04-22T01:06:09.730Z,27.07
2017-04-22T01:07:15.344Z,27.47
2017-04-22T01:08:21.008Z,26.28
2017-04-22T01:09:26.464Z,25.87
2017-04-22T01:10:31.904Z,26.53
2017-04-22T01:11:38.132Z,26.18
2017-04-22T01:12:44.590Z,25.37
2017-04-22T01:13:50.001Z,24.22
2017-04-22T01:14:54.822Z,25.38
2017-04-22T01:16:01.246Z,24.07
2017-04-22T01:17:06.938Z,22.73
2017-04-22T01:18:11.833Z,23.75
2017-04-22T01:19:18.350Z,23.72
2017-04-22T01:20:23.136Z,24.90
2017-04-22T01:21:28.520Z,24.57
2017-04-22T01:22:34.111Z,23.77
2017-04-22T01:23:40.356Z,23.02
2017-04-22T01:24:46.089Z,22.45
2017-04-22T01:25:52.374Z,23.50
2017-04-22T01:26:57.076Z,22.73
2017-04-22T01:28:02.740Z,23.92
2017-04-22T01:29:09.060Z,24.23
2017-04-22T01:30:13.962Z,23.03
2017-04-22T01:31:19.284Z,22.73
2017-04-22T01:32:24.024Z,24.38
2017-04-22T01:33:29.704Z,23.00
2017-04-22T01:34:35.076Z,22.53
2017-04-22T01:35:39.876Z,22.63
2017-04-22T01:36:46.182Z,22.83
2017-04-22T01:37:50.996Z,23.68
2017-04-22T01:38:57.493Z,22.77
2017-04-22T01:40:02.365Z,22.43
2017-04-22T01:41:09.737Z,21.38
2017-04-22T01:42:14.571Z,22.72
2017-04-22T01:43:20.037Z,21.23
2017-04-22T01:44:25.579Z,21.95
2017-04-22T01:45:30.995Z,21.45
2017-04-22T01:46:36.665Z,21.10
2017-04-22T01:47:42.877Z,20.03
2017-04-22T01:48:47.805Z,21.32
2017-04-22T01:49:53.245Z,20.30
2017-04-22T01:50:58.862Z,20.88
2017-04-22T01:52:04.453Z,20.60
2017-04-22T01:53:10.057Z,22.48
2017-04-22T01:54:15.511Z,19.73
2017-04-22T01:55:21.167Z,20.20
2017-04-22T01:56:26.616Z,18.90
2017-04-22T01:57:32.281Z,18.40
2017-04-22T01:58:38.641Z,18.55
2017-04-22T01:59:44.318Z,17.02
2017-04-22T02:00:49.781Z,15.63
2017-04-22T02:01:54.617Z,16.55
2017-04-22T02:03:00.129Z,15.70
2017-04-22T02:04:06.374Z,15.58
2017-04-22T02:05:11.206Z,15.02
2017-04-22T02:06:16.694Z,14.40
2017-04-22T02:07:23.076Z,15.05
2017-04-22T02:08:29.550Z,15.22
2017-04-22T02:09:35.252Z,14.52
2017-04-22T02:10:40.900Z,14.87
2017-04-22T02:11:46.452Z,14.80
2017-04-22T02:12:51.956Z,14.27
2017-04-22T02:13:57.491Z,14.67
2017-04-22T02:15:03.022Z,13.78
2017-04-22T02:16:09.525Z,14.13
2017-04-22T02:17:14.396Z,15.55
2017-04-22T02:18:19.782Z,15.35
2017-04-22T02:19:25.465Z,14.92
2017-04-22T02:20:31.930Z,14.53
2017-04-22T02:21:36.657Z,14.53
2017-04-22T02:22:42.185Z,13.55
2017-04-22T02:23:47.713Z,14.27
2017-04-22T02:24:53.971Z,15.25
2017-04-22T02:25:59.630Z,14.43
2017-04-22T02:27:05.198Z,12.88
2017-04-22T02:28:10.869Z,13.90
2017-04-22T02:29:16.357Z,13.03
2017-04-22T02:30:22.637Z,13.42
2017-04-22T02:31:27.420Z,15.20
2017-04-22T02:32:33.034Z,14.13
2017-04-22T02:33:38.551Z,12.80
2017-04-22T02:34:43.324Z,12.75
2017-04-22T02:35:48.957Z,14.65
2017-04-22T02:36:55.121Z,13.42
2017-04-22T02:37:59.954Z,13.38
2017-04-22T02:39:04.936Z,13.23
2017-04-22T02:40:10.159Z,12.95
2017-04-22T02:41:17.547Z,14.85
2017-04-22T02:42:22.388Z,14.33
2017-04-22T02:43:27.927Z,14.70
2017-04-22T02:44:33.781Z,14.82
2017-04-22T02:45:38.981Z,15.15
2017-04-22T02:46:44.550Z,14.10
2017-04-22T02:47:50.841Z,14.90
2017-04-22T02:48:56.422Z,15.25
2017-04-22T02:50:01.953Z,14.62
2017-04-22T02:51:06.737Z,15.70
2017-04-22T02:52:12.272Z,16.22
2017-04-22T02:53:17.741Z,14.62
2017-04-22T02:54:23.372Z,16.83
2017-04-22T02:55:28.792Z,15.90
2017-04-22T02:56:34.412Z,17.00
2017-04-22T02:57:40.157Z,16.05
2017-04-22T02:58:45.596Z,16.98
2017-04-22T02:59:51.139Z,16.50
2017-04-22T03:00:56.670Z,16.43
2017-04-22T03:02:02.911Z,17.23
2017-04-22T03:03:08.682Z,17.35
2017-04-22T03:04:14.192Z,16.57
2017-04-22T03:05:19.733Z,17.17
2017-04-22T03:06:25.288Z,16.95
2017-04-22T03:07:30.919Z,16.93
2017-04-22T03:08:38.103Z,15.77
2017-04-22T03:09:42.978Z,17.32
2017-04-22T03:10:48.634Z,18.45
2017-04-22T03:11:54.041Z,16.08
2017-04-22T03:12:59.625Z,16.47
2017-04-22T03:14:05.112Z,16.93
2017-04-22T03:15:10.646Z,17.32
2017-04-22T03:16:16.912Z,17.50
2017-04-22T03:17:21.753Z,16.37
2017-04-22T03:18:27.184Z,17.70
2017-04-22T03:19:32.684Z,16.13
2017-04-22T03:20:39.731Z,17.77
2017-04-22T03:21:45.509Z,17.50
2017-04-22T03:22:50.321Z,16.50
2017-04-22T03:23:55.861Z,17.67
2017-04-22T03:25:01.608Z,17.30
2017-04-22T03:26:07.182Z,17.50
2017-04-22T03:27:12.781Z,17.30
2017-04-22T03:28:18.254Z,17.82
2017-04-22T03:29:24.484Z,17.85
2017-04-22T03:30:29.414Z,17.70
2017-04-22T03:31:35.150Z,18.62
2017-04-22T03:32:41.334Z,17.48
2017-04-22T03:33:47.113Z,18.95
2017-04-22T03:34:52.769Z,17.95
2017-04-22T03:35:58.516Z,16.87
2017-04-22T03:37:03.945Z,17.65
2017-04-22T03:38:09.502Z,17.63
2017-04-22T03:39:14.998Z,18.53
2017-04-22T03:40:20.604Z,16.73
2017-04-22T03:41:27.705Z,17.32
2017-04-22T03:42:32.540Z,16.68
2017-04-22T03:43:38.195Z,17.50
2017-04-22T03:44:43.673Z,18.18
2017-04-22T03:45:49.947Z,17.75
2017-04-22T03:46:54.974Z,17.90
2017-04-22T03:48:01.356Z,18.00
2017-04-22T03:49:06.833Z,19.37
2017-04-22T03:50:11.749Z,18.40
2017-04-22T03:51:17.385Z,18.47
2017-04-22T03:52:22.874Z,17.93
2017-04-22T03:53:28.328Z,18.72
2017-04-22T03:54:33.792Z,18.68
2017-04-22T03:55:39.373Z,19.58
2017-04-22T03:56:45.863Z,18.25
2017-04-22T03:57:51.402Z,17.98
2017-04-22T03:58:56.959Z,19.03
2017-04-22T04:00:02.668Z,18.62
2017-04-22T04:01:08.208Z,19.00
2017-04-22T04:02:13.712Z,18.52
2017-04-22T04:03:19.412Z,18.73
2017-04-22T04:04:25.013Z,18.13
2017-04-22T04:05:31.272Z,19.50
2017-04-22T04:06:35.986Z,20.13
2017-04-22T04:07:42.392Z,19.05
2017-04-22T04:08:48.012Z,17.65
2017-04-22T04:09:52.765Z,19.30
2017-04-22T04:10:58.980Z,19.35
2017-04-22T04:12:03.889Z,19.17
2017-04-22T04:13:09.397Z,18.90
2017-04-22T04:14:14.907Z,18.33
2017-04-22T04:15:21.245Z,18.23
2017-04-22T04:16:26.102Z,19.10
2017-04-22T04:17:31.478Z,18.70
2017-04-22T04:18:37.006Z,18.17
2017-04-22T04:19:42.484Z,17.02
2017-04-22T04:20:47.908Z,17.63
2017-04-22T04:21:53.428Z,17.98
2017-04-22T04:22:59.045Z,17.62
2017-04-22T04:24:04.556Z,17.98
2017-04-22T04:25:10.249Z,17.35
2017-04-22T04:26:15.749Z,17.95
2017-04-22T04:27:22.138Z,18.05
2017-04-22T04:28:26.870Z,17.62
2017-04-22T04:29:32.419Z,18.42
2017-04-22T04:30:38.003Z,17.73
2017-04-22T04:31:44.228Z,19.08
2017-04-22T04:32:49.896Z,18.13
2017-04-22T04:33:55.410Z,17.22
2017-04-22T04:35:00.828Z,16.80
2017-04-22T04:36:06.515Z,17.43
2017-04-22T04:37:11.856Z,17.60
2017-04-22T04:38:18.275Z,17.45
2017-04-22T04:39:22.981Z,17.60
2017-04-22T04:40:29.312Z,17.40
2017-04-22T04:41:35.667Z,17.08
2017-04-22T04:42:40.636Z,17.00
2017-04-22T04:43:46.032Z,17.45
2017-04-22T04:44:52.308Z,16.38
2017-04-22T04:45:58.040Z,16.88
2017-04-22T04:47:03.772Z,16.15
2017-04-22T04:48:09.425Z,16.35
2017-04-22T04:49:15.197Z,16.25
2017-04-22T04:50:20.396Z,15.83
2017-04-22T04:51:26.046Z,16.23
2017-04-22T04:52:31.835Z,16.20
2017-04-22T04:53:37.232Z,15.98
2017-04-22T04:54:42.873Z,16.15
2017-04-22T04:55:48.442Z,17.48
2017-04-22T04:56:53.862Z,16.40
2017-04-22T04:57:58.623Z,16.67
2017-04-22T04:59:04.972Z,15.02
2017-04-22T05:00:09.789Z,16.32
2017-04-22T05:01:16.285Z,16.40
2017-04-22T05:02:21.818Z,17.15
2017-04-22T05:03:26.548Z,16.22
2017-04-22T05:04:32.060Z,15.27
2017-04-22T05:05:37.694Z,15.60
2017-04-22T05:06:43.142Z,16.88
2017-04-22T05:07:48.596Z,16.82
2017-04-22T05:08:55.946Z,16.68
2017-04-22T05:10:01.565Z,16.63
2017-04-22T05:11:07.301Z,15.93
2017-04-22T05:12:12.187Z,17.03
2017-04-22T05:13:18.280Z,17.60
2017-04-22T05:14:23.296Z,15.63
2017-04-22T05:15:28.716Z,17.47
2017-04-22T05:16:34.340Z,17.13
2017-04-22T05:17:39.953Z,16.95
2017-04-22T05:18:45.569Z,16.75
2017-04-22T05:19:52.178Z,17.60
2017-04-22T05:20:57.746Z,17.15
2017-04-22T05:22:03.266Z,17.50
2017-04-22T05:23:08.926Z,18.00
2017-04-22T05:24:14.451Z,17.67
2017-04-22T05:25:21.031Z,18.13
2017-04-22T05:26:26.627Z,17.77
2017-04-22T05:27:32.479Z,16.70
2017-04-22T05:28:37.633Z,17.00
2017-04-22T05:29:43.056Z,18.40
2017-04-22T05:30:48.669Z,18.38
2017-04-22T05:31:54.192Z,17.85
2017-04-22T05:32:59.850Z,17.37
2017-04-22T05:34:05.401Z,19.12
2017-04-22T05:35:11.744Z,19.43
2017-04-22T05:36:16.756Z,17.38
2017-04-22T05:37:22.852Z,17.97
2017-04-22T05:38:27.532Z,17.50
2017-04-22T05:39:33.793Z,19.55
2017-04-22T05:40:38.687Z,18.03
2017-04-22T05:41:44.385Z,18.35
2017-04-22T05:42:50.005Z,17.98
2017-04-22T05:43:55.548Z,18.17
2017-04-22T05:45:00.390Z,18.10
2017-04-22T05:46:06.586Z,17.33
2017-04-22T05:47:11.533Z,18.68
2017-04-22T05:48:17.178Z,18.53
2017-04-22T05:49:22.783Z,18.80
2017-04-22T05:50:28.297Z,17.73
2017-04-22T05:51:33.825Z,19.23
2017-04-22T05:52:39.243Z,19.60
2017-04-22T05:53:45.533Z,18.70
2017-04-22T05:54:51.860Z,18.52
2017-04-22T05:55:57.059Z,18.25
2017-04-22T05:57:03.497Z,18.20
2017-04-22T05:58:09.198Z,18.70
2017-04-22T05:59:15.368Z,18.93
2017-04-22T06:00:20.233Z,18.40
2017-04-22T06:01:25.801Z,18.90
2017-04-22T06:02:31.224Z,17.93
2017-04-22T06:03:36.723Z,18.03
2017-04-22T06:04:43.113Z,19.43
2017-04-22T06:05:48.780Z,18.58
2017-04-22T06:06:55.071Z,18.32
2017-04-22T06:08:00.524Z,18.05
2017-04-22T06:09:08.010Z,18.33
2017-04-22T06:10:12.880Z,18.40
2017-04-22T06:11:18.420Z,16.80
2017-04-22T06:12:24.816Z,19.80
2017-04-22T06:13:29.604Z,18.68
2017-04-22T06:14:35.220Z,18.32
2017-04-22T06:15:41.521Z,17.68
2017-04-22T06:16:46.301Z,18.93
2017-04-22T06:17:52.714Z,18.25
2017-04-22T06:18:57.505Z,18.33
2017-04-22T06:20:03.956Z,18.80
2017-04-22T06:21:08.701Z,17.97
2017-04-22T06:22:15.049Z,17.27
2017-04-22T06:23:19.823Z,18.80
2017-04-22T06:24:25.532Z,18.53
2017-04-22T06:25:31.088Z,19.42
2017-04-22T06:26:36.492Z,18.57
2017-04-22T06:27:42.133Z,17.77
2017-04-22T06:28:48.369Z,18.45
2017-04-22T06:29:53.331Z,18.30
2017-04-22T06:30:58.805Z,17.52
2017-04-22T06:32:05.226Z,18.35
2017-04-22T06:33:09.948Z,17.38
2017-04-22T06:34:15.493Z,17.10
2017-04-22T06:35:21.032Z,19.20
2017-04-22T06:36:26.696Z,18.45
2017-04-22T06:37:32.187Z,16.52
2017-04-22T06:38:38.362Z,17.73
2017-04-22T06:39:44.031Z,18.03
2017-04-22T06:40:49.511Z,18.88
2017-04-22T06:41:55.860Z,18.43
2017-04-22T06:43:00.672Z,17.28
2017-04-22T06:44:07.103Z,17.88
2017-04-22T06:45:12.662Z,17.58
2017-04-22T06:46:17.325Z,18.32
2017-04-22T06:47:23.801Z,17.85
2017-04-22T06:48:28.720Z,18.92
2017-04-22T06:49:34.333Z,19.05
2017-04-22T06:50:39.825Z,17.40
2017-04-22T06:51:45.341Z,17.00
2017-04-22T06:52:51.703Z,16.47
2017-04-22T06:53:57.463Z,16.60
2017-04-22T06:55:02.204Z,16.75
2017-04-22T06:56:07.593Z,18.05
2017-04-22T06:57:13.272Z,16.80
2017-04-22T06:58:20.738Z,16.83
2017-04-22T06:59:25.453Z,17.20
2017-04-22T07:00:31.108Z,16.88
2017-04-22T07:01:37.427Z,18.73
2017-04-22T07:02:43.641Z,16.58
2017-04-22T07:03:48.921Z,18.47
2017-04-22T07:04:54.612Z,17.47
2017-04-22T07:06:00.929Z,16.67
2017-04-22T07:07:05.605Z,16.77
2017-04-22T07:08:11.108Z,17.00
2017-04-22T07:09:17.561Z,15.97
2017-04-22T07:10:22.435Z,16.97
2017-04-22T07:11:27.951Z,18.17
2017-04-22T07:12:33.577Z,17.80
2017-04-22T07:13:39.993Z,18.98
2017-04-22T07:14:45.644Z,16.72
2017-04-22T07:15:50.310Z,32.22
2017-04-22T07:16:56.659Z,17.15
2017-04-22T07:18:01.449Z,17.47
2017-04-22T07:19:07.647Z,27.20
2017-04-22T07:20:12.420Z,18.88
2017-04-22T07:21:18.006Z,18.40
2017-04-22T07:22:23.720Z,17.18
2017-04-22T07:23:29.287Z,17.07
2017-04-22T07:24:35.729Z,17.70
2017-04-22T07:25:41.340Z,17.92
2017-04-22T07:26:47.064Z,17.13
2017-04-22T07:27:53.428Z,18.03
2017-04-22T07:28:59.014Z,16.98
2017-04-22T07:30:03.919Z,17.17
2017-04-22T07:31:09.398Z,16.92
2017-04-22T07:32:15.100Z,16.95
2017-04-22T07:33:20.377Z,17.00
2017-04-22T07:34:25.868Z,17.87
2017-04-22T07:35:31.536Z,17.28
2017-04-22T07:36:38.024Z,17.57
2017-04-22T07:37:42.893Z,19.23
2017-04-22T07:38:49.517Z,16.85
2017-04-22T07:39:55.755Z,18.10
2017-04-22T07:41:00.642Z,18.23
2017-04-22T07:42:06.970Z,18.73
2017-04-22T07:43:12.608Z,17.43
2017-04-22T07:44:18.156Z,19.03
2017-04-22T07:45:24.500Z,16.67
2017-04-22T07:46:29.378Z,18.27
2017-04-22T07:47:34.205Z,18.98
2017-04-22T07:48:39.691Z,17.37
2017-04-22T07:49:45.278Z,18.85
2017-04-22T07:50:51.614Z,19.05
2017-04-22T07:51:56.383Z,18.43
2017-04-22T07:53:01.976Z,18.85
2017-04-22T07:54:07.550Z,19.30
2017-04-22T07:55:13.097Z,18.90
2017-04-22T07:56:18.602Z,19.30
2017-04-22T07:57:24.299Z,18.78
2017-04-22T07:58:29.805Z,19.25
2017-04-22T07:59:36.054Z,21.70
2017-04-22T08:00:40.802Z,19.77
2017-04-22T08:01:46.284Z,20.20
2017-04-22T08:02:51.773Z,19.23
2017-04-22T08:03:56.556Z,20.57
2017-04-22T08:05:02.926Z,19.52
2017-04-22T08:06:07.849Z,19.88
2017-04-22T08:07:14.141Z,19.42
2017-04-22T08:08:18.927Z,19.60
2017-04-22T08:09:26.207Z,19.78
2017-04-22T08:10:31.012Z,15.87
2017-04-22T08:11:37.995Z,5.42
2017-04-22T08:12:43.154Z,1.73
2017-04-22T08:13:48.690Z,1.10
2017-04-22T08:14:54.133Z,1.12
2017-04-22T08:16:00.461Z,0.80
2017-04-22T08:17:06.877Z,0.60
2017-04-22T08:18:12.104Z,0.55
2017-04-22T08:19:18.330Z,0.52
2017-04-22T08:20:24.367Z,0.90
2017-04-22T08:21:29.175Z,0.55
2017-04-22T08:22:34.656Z,0.55
2017-04-22T08:23:41.036Z,0.83
2017-04-22T08:24:46.462Z,0.78
2017-04-22T08:25:52.428Z,0.70
2017-04-22T08:26:57.217Z,0.80
2017-04-22T08:28:03.021Z,0.75
2017-04-22T08:29:08.223Z,0.62
2017-04-22T08:30:13.632Z,0.87
2017-04-22T08:31:19.389Z,0.70
2017-04-22T08:32:24.839Z,0.70
2017-04-22T08:33:30.387Z,0.73
2017-04-22T08:34:35.996Z,0.90
2017-04-22T08:35:41.540Z,0.58
2017-04-22T08:36:48.052Z,0.50
2017-04-22T08:37:53.716Z,0.53
2017-04-22T08:38:59.217Z,0.80
2017-04-22T08:40:04.697Z,0.67
2017-04-22T08:41:10.198Z,0.52
2017-04-22T08:42:17.715Z,0.82
2017-04-22T08:43:23.272Z,0.68
2017-04-22T08:44:28.056Z,0.80
2017-04-22T08:45:33.675Z,0.88
2017-04-22T08:46:39.301Z,1.05
2017-04-22T08:47:44.965Z,0.60
2017-04-22T08:48:51.193Z,0.70
2017-04-22T08:49:56.880Z,0.63
2017-04-22T08:51:02.532Z,0.50
2017-04-22T08:52:07.275Z,0.50
2017-04-22T08:53:12.977Z,0.50
2017-04-22T08:54:19.309Z,0.58
2017-04-22T08:55:24.849Z,0.60
2017-04-22T08:56:30.439Z,0.43
2017-04-22T08:57:35.280Z,0.63
2017-04-22T08:58:40.902Z,0.73
2017-04-22T08:59:46.571Z,0.67
2017-04-22T09:00:52.741Z,0.63
2017-04-22T09:01:57.636Z,10.78
2017-04-22T09:03:03.229Z,10.58
2017-04-22T09:04:08.892Z,6.00
2017-04-22T09:05:15.411Z,1.47
2017-04-22T09:06:20.931Z,1.17
2017-04-22T09:07:25.749Z,0.80
2017-04-22T09:08:31.248Z,0.70
2017-04-22T09:09:38.826Z,0.77
2017-04-22T09:10:43.610Z,0.70
2017-04-22T09:11:49.283Z,0.70
2017-04-22T09:12:54.765Z,0.60
2017-04-22T09:14:00.459Z,0.63
2017-04-22T09:15:06.247Z,0.73
2017-04-22T09:16:11.512Z,0.75
2017-04-22T09:17:17.050Z,0.60
2017-04-22T09:18:22.689Z,0.75
2017-04-22T09:19:28.192Z,0.50
2017-04-22T09:20:33.841Z,0.93
2017-04-22T09:21:39.441Z,0.70
2017-04-22T09:22:45.074Z,0.90
2017-04-22T09:23:50.660Z,0.65
2017-04-22T09:24:57.014Z,1.32
2017-04-22T09:26:01.925Z,1.78
2017-04-22T09:27:08.177Z,1.95
2017-04-22T09:28:13.895Z,1.00
2017-04-22T09:29:18.632Z,0.70
2017-04-22T09:30:24.264Z,1.53
2017-04-22T09:31:30.553Z,0.77
2017-04-22T09:32:35.396Z,0.88
2017-04-22T09:33:40.993Z,0.85
2017-04-22T09:34:46.477Z,0.77
2017-04-22T09:35:52.100Z,0.72
2017-04-22T09:36:57.684Z,0.90
2017-04-22T09:38:03.332Z,0.72
2017-04-22T09:39:08.810Z,0.92
2017-04-22T09:40:15.123Z,0.70
2017-04-22T09:41:20.760Z,1.10
2017-04-22T09:42:25.812Z,0.80
2017-04-22T09:43:31.187Z,0.55
2017-04-22T09:44:37.501Z,1.00
2017-04-22T09:45:43.164Z,0.80
2017-04-22T09:46:47.909Z,0.82
2017-04-22T09:47:53.649Z,0.58
2017-04-22T09:48:59.678Z,0.87
2017-04-22T09:50:04.474Z,0.82
2017-04-22T09:51:10.142Z,0.83
2017-04-22T09:52:16.580Z,0.88
2017-04-22T09:53:22.117Z,0.68
2017-04-22T09:54:26.947Z,0.97
2017-04-22T09:55:32.608Z,1.07
2017-04-22T09:56:38.105Z,1.00
2017-04-22T09:57:43.592Z,1.12
2017-04-22T09:58:48.349Z,1.05
2017-04-22T09:59:53.814Z,1.02
2017-04-22T10:00:59.313Z,0.97
2017-04-22T10:02:04.142Z,0.63
2017-04-22T10:03:09.673Z,0.85
2017-04-22T10:04:15.206Z,0.85
2017-04-22T10:05:20.111Z,1.33
2017-04-22T10:06:25.716Z,0.78
2017-04-22T10:07:31.344Z,0.67
2017-04-22T10:08:36.804Z,0.92
2017-04-22T10:09:43.245Z,0.60
2017-04-22T10:10:48.486Z,0.92
2017-04-22T10:11:53.596Z,1.02
2017-04-22T10:12:59.217Z,0.70
2017-04-22T10:14:04.815Z,0.80
2017-04-22T10:15:11.227Z,1.17
2017-04-22T10:16:16.836Z,0.85
2017-04-22T10:17:21.624Z,0.92
2017-04-22T10:18:27.942Z,0.92
2017-04-22T10:19:33.405Z,1.48
2017-04-22T10:20:39.105Z,1.42
2017-04-22T10:21:43.916Z,1.13
2017-04-22T10:22:50.362Z,0.72
2017-04-22T10:23:55.077Z,0.90
2017-04-22T10:25:00.717Z,1.22
2017-04-22T10:26:06.319Z,1.10
2017-04-22T10:27:11.796Z,1.03
2017-04-22T10:28:17.308Z,1.27
2017-04-22T10:29:22.800Z,1.10
2017-04-22T10:30:27.733Z,0.90
2017-04-22T10:31:33.985Z,1.47
2017-04-22T10:32:38.719Z,1.08
2017-04-22T10:33:45.105Z,1.82
2017-04-22T10:34:49.910Z,1.10
2017-04-22T10:35:55.417Z,1.02
2017-04-22T10:37:01.861Z,2.63
2017-04-22T10:38:08.265Z,1.33
2017-04-22T10:39:13.025Z,1.60
2017-04-22T10:40:18.616Z,1.45
2017-04-22T10:41:24.248Z,1.12
2017-04-22T10:42:29.841Z,1.35
2017-04-22T10:43:35.313Z,1.87
2017-04-22T10:44:41.697Z,1.53
2017-04-22T10:45:47.285Z,1.67
2017-04-22T10:46:51.961Z,1.47
2017-04-22T10:47:57.697Z,2.05
2017-04-22T10:49:03.889Z,1.90
2017-04-22T10:50:08.681Z,2.03
2017-04-22T10:51:14.124Z,2.10
2017-04-22T10:52:19.744Z,2.18
2017-04-22T10:53:25.376Z,2.17
2017-04-22T10:54:31.745Z,2.52
2017-04-22T10:55:37.308Z,3.00
2017-04-22T10:56:42.032Z,2.20
2017-04-22T10:57:47.650Z,2.25
2017-04-22T10:58:53.953Z,2.37
2017-04-22T10:59:58.777Z,2.17
2017-04-22T11:01:04.353Z,2.48
2017-04-22T11:02:09.850Z,3.23
2017-04-22T11:03:15.401Z,2.87
2017-04-22T11:04:21.066Z,2.45
2017-04-22T11:05:27.250Z,2.82
2017-04-22T11:06:32.977Z,2.42
2017-04-22T11:07:37.733Z,2.25
2017-04-22T11:08:43.970Z,2.47
2017-04-22T11:09:50.521Z,2.30
2017-04-22T11:10:55.333Z,2.83
2017-04-22T11:12:00.931Z,2.97
2017-04-22T11:13:06.462Z,3.15
2017-04-22T11:14:12.701Z,2.87
2017-04-22T11:15:17.547Z,3.13
2017-04-22T11:16:23.181Z,2.60
2017-04-22T11:17:28.702Z,2.72
2017-04-22T11:18:34.556Z,3.40
2017-04-22T11:19:39.874Z,3.00
2017-04-22T11:20:46.417Z,2.78
2017-04-22T11:21:51.310Z,3.30
2017-04-22T11:22:56.708Z,2.72
2017-04-22T11:24:02.194Z,3.05
2017-04-22T11:25:07.773Z,2.73
2017-04-22T11:26:12.675Z,3.27
2017-04-22T11:27:18.741Z,2.92
2017-04-22T11:28:23.589Z,3.20
2017-04-22T11:29:29.104Z,3.15
2017-04-22T11:30:35.356Z,3.80
2017-04-22T11:31:40.322Z,3.98
2017-04-22T11:32:45.820Z,4.27
2017-04-22T11:33:51.461Z,4.55
2017-04-22T11:34:56.193Z,4.00
2017-04-22T11:36:02.588Z,3.13
2017-04-22T11:37:09.062Z,3.42
2017-04-22T11:38:14.585Z,3.68
2017-04-22T11:39:20.221Z,3.17
2017-04-22T11:40:24.890Z,3.52
2017-04-22T11:41:31.357Z,3.30
2017-04-22T11:42:36.941Z,3.57
2017-04-22T11:43:41.765Z,3.67
2017-04-22T11:44:48.200Z,3.22
2017-04-22T11:45:53.068Z,4.25
2017-04-22T11:46:58.677Z,4.10
2017-04-22T11:48:05.282Z,3.60
2017-04-22T11:49:10.778Z,4.07
2017-04-22T11:50:16.440Z,4.52
2017-04-22T11:51:22.037Z,4.83
2017-04-22T11:52:27.630Z,3.45
2017-04-22T11:53:33.181Z,4.10
2017-04-22T11:54:38.772Z,4.25
2017-04-22T11:55:44.348Z,4.15
2017-04-22T11:56:50.732Z,3.77
2017-04-22T11:57:55.718Z,4.23
2017-04-22T11:59:01.200Z,4.02
2017-04-22T12:00:07.576Z,4.42
2017-04-22T12:01:12.560Z,4.25
2017-04-22T12:02:18.160Z,3.70
2017-04-22T12:03:23.696Z,4.13
2017-04-22T12:04:29.346Z,3.72
2017-04-22T12:05:34.682Z,3.70
2017-04-22T12:06:40.075Z,3.92
2017-04-22T12:07:46.330Z,3.70
2017-04-22T12:08:51.357Z,3.62
2017-04-22T12:09:57.821Z,3.35
2017-04-22T12:11:02.552Z,4.15
2017-04-22T12:12:08.194Z,3.50
2017-04-22T12:13:14.456Z,4.12
2017-04-22T12:14:19.940Z,4.85
2017-04-22T12:15:24.805Z,4.78
2017-04-22T12:16:30.558Z,4.47
2017-04-22T12:17:36.817Z,3.72
2017-04-22T12:18:41.601Z,4.25
2017-04-22T12:19:47.220Z,3.93
2017-04-22T12:20:52.759Z,5.15
2017-04-22T12:21:57.434Z,4.77
2017-04-22T12:23:03.100Z,5.08
2017-04-22T12:24:08.681Z,4.65
2017-04-22T12:25:14.317Z,4.75
2017-04-22T12:26:19.896Z,4.22
2017-04-22T12:27:25.314Z,4.30
2017-04-22T12:28:30.097Z,4.57
2017-04-22T12:29:35.665Z,4.45
2017-04-22T12:30:40.964Z,4.72
2017-04-22T12:31:46.504Z,4.87
2017-04-22T12:32:52.781Z,5.97
2017-04-22T12:33:57.582Z,5.80
2017-04-22T12:35:03.162Z,5.00
2017-04-22T12:36:09.429Z,5.20
2017-04-22T12:37:14.140Z,5.93
2017-04-22T12:38:19.658Z,5.00
2017-04-22T12:39:25.177Z,5.47
2017-04-22T12:40:30.799Z,5.65
2017-04-22T12:41:37.038Z,5.47
2017-04-22T12:42:42.775Z,5.37
2017-04-22T12:43:48.103Z,5.32
2017-04-22T12:44:53.768Z,5.80
2017-04-22T12:45:59.140Z,6.22
2017-04-22T12:47:05.556Z,5.40
2017-04-22T12:48:10.584Z,5.38
2017-04-22T12:49:15.906Z,5.17
2017-04-22T12:50:22.194Z,5.60
2017-04-22T12:51:26.917Z,5.57
2017-04-22T12:52:32.480Z,5.45
2017-04-22T12:53:38.121Z,6.15
2017-04-22T12:54:44.409Z,6.28
2017-04-22T12:55:50.102Z,5.65
2017-04-22T12:56:54.954Z,5.45
2017-04-22T12:58:00.524Z,5.82
2017-04-22T12:59:06.190Z,6.57
2017-04-22T13:00:11.771Z,5.22
2017-04-22T13:01:18.137Z,6.15
2017-04-22T13:02:23.686Z,5.52
2017-04-22T13:03:28.425Z,5.32
2017-04-22T13:04:34.084Z,5.43
2017-04-22T13:05:39.560Z,5.30
2017-04-22T13:06:45.948Z,5.88
2017-04-22T13:07:50.734Z,6.12
2017-04-22T13:08:56.438Z,5.20
2017-04-22T13:10:03.509Z,7.70
2017-04-22T13:11:08.317Z,4.70
2017-04-22T13:12:13.919Z,7.50
2017-04-22T13:13:20.002Z,5.75
2017-04-22T13:14:25.613Z,4.27
2017-04-22T13:15:30.485Z,3.95
2017-04-22T13:16:36.730Z,4.25
2017-04-22T13:17:41.428Z,5.05
2017-04-22T13:18:48.512Z,4.57
2017-04-22T13:19:53.649Z,4.45
2017-04-22T13:20:59.266Z,4.28
2017-04-22T13:22:05.577Z,4.65
2017-04-22T13:23:11.020Z,4.15
2017-04-22T13:24:15.801Z,4.60
2017-04-22T13:25:21.421Z,4.12
2017-04-22T13:26:27.642Z,4.15
2017-04-22T13:27:33.281Z,4.30
2017-04-22T13:28:38.074Z,4.43
2017-04-22T13:29:43.585Z,4.33
2017-04-22T13:30:49.349Z,4.60
2017-04-22T13:31:55.466Z,4.48
2017-04-22T13:33:00.152Z,4.12
2017-04-22T13:34:05.752Z,4.05
2017-04-22T13:35:11.265Z,3.98
2017-04-22T13:36:16.893Z,3.97
2017-04-22T13:37:22.450Z,4.10
2017-04-22T13:38:28.758Z,4.85
2017-04-22T13:39:33.470Z,4.42
2017-04-22T13:40:38.926Z,4.15
2017-04-22T13:41:44.408Z,4.07
2017-04-22T13:42:50.054Z,3.98
2017-04-22T13:43:55.417Z,4.37
2017-04-22T13:45:01.029Z,4.50
2017-04-22T13:46:07.402Z,3.58
2017-04-22T13:47:12.188Z,4.25
2017-04-22T13:48:17.916Z,4.33
2017-04-22T13:49:23.279Z,3.82
2017-04-22T13:50:28.786Z,4.07
2017-04-22T13:51:35.056Z,3.60
2017-04-22T13:52:40.748Z,4.20
2017-04-22T13:53:45.588Z,4.08
2017-04-22T13:54:51.186Z,4.35
2017-04-22T13:55:57.597Z,4.08
2017-04-22T13:57:02.429Z,3.63
2017-04-22T13:58:07.989Z,4.00
2017-04-22T13:59:14.350Z,4.23
2017-04-22T14:00:19.037Z,3.72
2017-04-22T14:01:24.494Z,3.45
2017-04-22T14:02:31.421Z,3.80
2017-04-22T14:03:36.984Z,3.67
2017-04-22T14:04:43.243Z,3.80
2017-04-22T14:05:48.941Z,3.15
2017-04-22T14:06:54.384Z,4.07
2017-04-22T14:08:00.710Z,3.75
2017-04-22T14:09:05.617Z,3.58
2017-04-22T14:10:12.615Z,4.42
2017-04-22T14:11:18.182Z,4.27
2017-04-22T14:12:22.964Z,4.15
2017-04-22T14:13:28.517Z,4.95
2017-04-22T14:14:34.125Z,4.10
2017-04-22T14:15:39.745Z,4.42
2017-04-22T14:16:45.977Z,5.93